createdAt,value
2022-11-15T00:01:46.688Z,46.47
2022-11-15T00:04:55.760Z,46.36
2022-11-15T00:08:04.999Z,46.35
2022-11-15T00:11:15.443Z,46.38
2022-11-15T00:14:24.689Z,46.30
2022-11-15T00:17:33.510Z,46.26
2022-11-15T00:20:43.953Z,46.26
2022-11-15T00:23:52.600Z,46.36
2022-11-15T00:27:01.542Z,46.51
2022-11-15T00:30:13.672Z,46.56
2022-11-15T00:33:23.358Z,46.54
2022-11-15T00:36:34.750Z,46.61
2022-11-15T00:39:43.551Z,46.50
2022-11-15T00:42:52.482Z,46.43
2022-11-15T00:46:01.601Z,46.40
2022-11-15T00:49:10.479Z,46.44
2022-11-15T00:52:20.394Z,46.44
2022-11-15T00:55:29.608Z,46.36
2022-11-15T00:58:38.564Z,46.39
2022-11-15T01:01:47.417Z,46.33
2022-11-15T01:04:56.280Z,46.31
2022-11-15T01:08:05.463Z,46.42
2022-11-15T01:11:15.632Z,46.53
2022-11-15T01:14:25.736Z,46.74
2022-11-15T01:17:35.675Z,46.96
2022-11-15T01:20:45.913Z,47.15
2022-11-15T01:23:59.038Z,47.42
2022-11-15T01:27:07.882Z,47.60
2022-11-15T01:30:17.648Z,47.71
2022-11-15T01:33:27.010Z,47.88
2022-11-15T01:36:36.056Z,47.93
2022-11-15T01:39:45.798Z,48.05
2022-11-15T01:42:54.827Z,48.29
2022-11-15T01:46:08.380Z,48.28
2022-11-15T01:49:21.417Z,48.41
2022-11-15T01:52:33.078Z,48.40
2022-11-15T01:55:42.200Z,48.43
2022-11-15T01:58:52.787Z,48.42
2022-11-15T02:02:02.244Z,48.47
2022-11-15T02:05:11.686Z,48.53
2022-11-15T02:08:21.886Z,48.63
2022-11-15T02:11:32.052Z,48.76
2022-11-15T02:14:44.355Z,48.85
2022-11-15T02:18:12.686Z,48.97
2022-11-15T02:21:31.374Z,49.18
2022-11-15T02:25:12.473Z,49.49
2022-11-15T02:28:50.577Z,49.66
2022-11-15T02:32:05.895Z,50.06
2022-11-15T02:35:26.615Z,50.32
2022-11-15T02:38:49.737Z,50.52
2022-11-15T02:42:04.817Z,50.70
2022-11-15T02:45:33.965Z,51.01
2022-11-15T02:48:45.781Z,51.14
2022-11-15T02:51:56.991Z,51.32
2022-11-15T02:55:06.429Z,51.63
2022-11-15T02:58:30.925Z,51.75
2022-11-15T03:01:53.371Z,51.97
2022-11-15T03:05:11.739Z,52.27
2022-11-15T03:08:28.512Z,52.58
2022-11-15T03:11:42.514Z,52.66
2022-11-15T03:14:56.873Z,52.81
2022-11-15T03:18:12.859Z,53.09
2022-11-15T03:21:24.257Z,53.30
2022-11-15T03:24:36.636Z,53.58
2022-11-15T03:27:50.811Z,53.71
2022-11-15T03:31:22.982Z,53.78
2022-11-15T03:34:37.333Z,54.07
2022-11-15T03:37:52.225Z,54.23
2022-11-15T03:41:06.436Z,54.40
2022-11-15T03:44:23.681Z,54.77
2022-11-15T03:47:38.562Z,55.05
2022-11-15T03:50:48.422Z,55.20
2022-11-15T03:53:57.500Z,55.36
2022-11-15T03:57:06.922Z,55.38
2022-11-15T04:00:17.994Z,55.33
2022-11-15T04:03:27.253Z,55.29
2022-11-15T04:06:37.341Z,55.19
2022-11-15T04:10:05.609Z,55.17
2022-11-15T04:13:14.368Z,55.02
2022-11-15T04:16:23.590Z,54.97
2022-11-15T04:19:50.255Z,55.02
2022-11-15T04:23:18.162Z,55.16
2022-11-15T04:26:27.239Z,55.34
2022-11-15T04:29:38.994Z,55.43
2022-11-15T04:32:47.920Z,55.45
2022-11-15T04:36:13.797Z,55.46
2022-11-15T04:39:23.200Z,55.41
2022-11-15T04:42:32.260Z,55.31
2022-11-15T04:45:40.998Z,55.42
2022-11-15T04:48:53.034Z,55.59
2022-11-15T04:52:04.814Z,55.71
2022-11-15T04:55:14.208Z,55.78
2022-11-15T04:58:23.248Z,55.82
2022-11-15T05:01:32.424Z,55.85
2022-11-15T05:04:41.740Z,55.93
2022-11-15T05:07:50.652Z,56.06
2022-11-15T05:10:59.378Z,56.20
2022-11-15T05:14:08.414Z,56.33
2022-11-15T05:17:17.545Z,56.34
2022-11-15T05:20:26.680Z,56.28
2022-11-15T05:23:36.028Z,56.62
2022-11-15T05:26:44.530Z,56.74
2022-11-15T05:29:53.581Z,56.74
2022-11-15T05:33:03.070Z,56.83
2022-11-15T05:36:19.638Z,56.82
2022-11-15T05:39:29.157Z,56.81
2022-11-15T05:42:38.697Z,56.75
2022-11-15T05:45:47.866Z,56.84
2022-11-15T05:48:59.529Z,56.87
2022-11-15T05:52:11.220Z,56.78
2022-11-15T05:55:20.517Z,56.95
2022-11-15T05:58:30.308Z,57.10
2022-11-15T06:01:40.740Z,57.27
2022-11-15T06:04:50.848Z,57.38
2022-11-15T06:08:02.632Z,57.51
2022-11-15T06:11:12.384Z,57.62
2022-11-15T06:14:21.384Z,57.66
2022-11-15T06:17:31.295Z,57.52
2022-11-15T06:20:41.129Z,57.58
2022-11-15T06:23:50.780Z,57.72
2022-11-15T06:27:00.008Z,57.84
2022-11-15T06:30:11.028Z,58.06
2022-11-15T06:33:19.373Z,58.46
2022-11-15T06:36:28.616Z,58.24
2022-11-15T06:39:37.807Z,58.35
2022-11-15T06:42:48.582Z,57.50
2022-11-15T06:45:57.577Z,56.72
2022-11-15T06:49:09.739Z,55.84
2022-11-15T06:52:20.113Z,55.48
2022-11-15T06:55:28.844Z,55.61
2022-11-15T06:58:38.071Z,55.34
2022-11-15T07:01:46.999Z,54.78
2022-11-15T07:04:56.100Z,54.46
2022-11-15T07:08:06.123Z,54.28
2022-11-15T07:11:16.041Z,54.15
2022-11-15T07:14:25.556Z,54.21
2022-11-15T07:17:34.206Z,54.32
2022-11-15T07:20:43.457Z,54.44
2022-11-15T07:23:52.807Z,54.60
2022-11-15T07:27:02.002Z,54.68
2022-11-15T07:30:15.541Z,54.77
2022-11-15T07:33:25.298Z,54.61
2022-11-15T07:36:34.543Z,54.61
2022-11-15T07:39:43.584Z,54.75
2022-11-15T07:42:56.851Z,54.30
2022-11-15T07:46:11.460Z,53.73
2022-11-15T07:49:20.904Z,53.60
2022-11-15T07:52:29.977Z,53.63
2022-11-15T07:55:38.813Z,53.58
2022-11-15T07:58:49.377Z,53.64
2022-11-15T08:01:58.048Z,53.73
2022-11-15T08:05:07.584Z,54.00
2022-11-15T08:08:16.108Z,54.12
2022-11-15T08:11:25.570Z,54.15
2022-11-15T08:14:35.212Z,54.27
2022-11-15T08:17:44.784Z,54.38
2022-11-15T08:20:53.774Z,54.26
2022-11-15T08:24:03.644Z,54.17
2022-11-15T08:27:16.869Z,54.11
2022-11-15T08:30:26.640Z,54.13
2022-11-15T08:33:36.072Z,54.12
2022-11-15T08:36:46.247Z,54.06
2022-11-15T08:39:55.334Z,54.13
2022-11-15T08:43:04.274Z,54.27
2022-11-15T08:46:15.567Z,54.37
2022-11-15T08:49:24.484Z,54.46
2022-11-15T08:52:33.869Z,54.45
2022-11-15T08:55:43.444Z,54.62
2022-11-15T08:58:52.399Z,55.27
2022-11-15T09:02:02.055Z,55.60
2022-11-15T09:05:12.811Z,55.80
2022-11-15T09:11:51.795Z,56.21
2022-11-15T09:15:00.474Z,56.13
2022-11-15T09:18:09.718Z,56.05
2022-11-15T09:21:19.845Z,55.97
2022-11-15T09:24:28.495Z,56.02
2022-11-15T09:27:37.135Z,55.99
2022-11-15T09:30:45.952Z,55.87
2022-11-15T09:33:55.078Z,55.68
2022-11-15T09:37:04.677Z,55.54
2022-11-15T09:40:17.851Z,55.45
2022-11-15T09:43:35.458Z,55.52
2022-11-15T09:46:58.241Z,55.56
2022-11-15T09:50:20.653Z,55.73
2022-11-15T09:53:15.303Z,55.85
2022-11-15T09:56:13.903Z,55.87
2022-11-15T09:59:24.542Z,55.91
2022-11-15T10:02:33.151Z,56.04
2022-11-15T10:05:25.189Z,55.95
2022-11-15T10:08:49.625Z,55.90
2022-11-15T10:11:40.786Z,56.08
2022-11-15T10:14:33.488Z,56.19
2022-11-15T10:17:51.691Z,56.08
2022-11-15T10:20:51.437Z,56.06
2022-11-15T10:23:41.802Z,56.04
2022-11-15T10:26:32.292Z,56.18
2022-11-15T10:29:27.471Z,56.34
2022-11-15T10:32:22.679Z,56.81
2022-11-15T10:35:27.378Z,57.17
2022-11-15T10:38:17.615Z,57.41
2022-11-15T10:41:13.927Z,57.52
2022-11-15T10:44:14.681Z,57.60
2022-11-15T10:47:27.266Z,57.53
2022-11-15T10:50:32.878Z,57.59
2022-11-15T10:53:31.975Z,57.56
2022-11-15T10:56:27.576Z,57.63
2022-11-15T10:59:28.178Z,57.60
2022-11-15T11:02:39.146Z,57.76
2022-11-15T11:05:39.917Z,57.95
2022-11-15T11:08:33.552Z,58.16
2022-11-15T11:11:23.890Z,58.43
2022-11-15T11:14:21.801Z,58.72
2022-11-15T11:17:22.386Z,58.89
2022-11-15T11:20:21.422Z,59.06
2022-11-15T11:23:40.648Z,59.27
2022-11-15T11:26:43.263Z,59.42
2022-11-15T11:29:47.611Z,59.49
2022-11-15T11:32:55.248Z,59.53
2022-11-15T11:35:56.970Z,59.60
2022-11-15T11:38:59.298Z,59.73
2022-11-15T11:41:58.887Z,59.76
2022-11-15T11:44:59.626Z,59.84
2022-11-15T11:47:56.824Z,60.07
2022-11-15T11:50:49.371Z,60.13
2022-11-15T11:53:45.532Z,60.23
2022-11-15T11:56:38.864Z,60.35
2022-11-15T11:59:38.743Z,60.48
2022-11-15T12:02:35.186Z,60.54
2022-11-15T12:05:35.091Z,60.66
2022-11-15T12:08:35.731Z,60.75
2022-11-15T12:11:30.512Z,60.87
2022-11-15T12:14:34.742Z,60.90
2022-11-15T12:17:29.264Z,60.99
2022-11-15T12:20:22.527Z,61.05
2022-11-15T12:23:20.184Z,61.01
2022-11-15T12:26:18.751Z,61.01
2022-11-15T12:29:17.393Z,61.01
2022-11-15T12:32:19.304Z,61.00
2022-11-15T12:35:39.634Z,61.02
2022-11-15T12:38:59.267Z,61.24
2022-11-15T12:42:26.121Z,61.13
2022-11-15T12:45:32.286Z,61.05
2022-11-15T12:49:00.920Z,60.86
2022-11-15T12:52:09.148Z,60.84
2022-11-15T12:55:30.122Z,60.85
2022-11-15T12:58:43.345Z,60.65
2022-11-15T13:02:01.016Z,59.40
2022-11-15T13:04:51.879Z,58.31
2022-11-15T13:08:01.341Z,57.82
2022-11-15T13:10:50.912Z,57.52
2022-11-15T13:13:48.386Z,57.16
2022-11-15T13:16:38.614Z,56.97
2022-11-15T13:19:28.767Z,56.66
2022-11-15T13:22:32.465Z,56.30
2022-11-15T13:25:38.875Z,56.06
2022-11-15T13:28:36.015Z,55.92
2022-11-15T13:31:42.679Z,55.69
2022-11-15T13:34:53.154Z,55.53
2022-11-15T13:37:45.218Z,55.56
2022-11-15T13:40:39.386Z,55.51
2022-11-15T13:43:36.278Z,55.55
2022-11-15T13:46:28.376Z,55.78
2022-11-15T13:49:18.718Z,56.49
2022-11-15T13:52:10.719Z,56.89
2022-11-15T13:55:04.752Z,57.30
2022-11-15T13:57:58.642Z,57.70
2022-11-15T14:00:49.304Z,58.04
2022-11-15T14:03:52.043Z,58.23
2022-11-15T14:06:49.647Z,58.38
2022-11-15T14:09:42.231Z,58.51
2022-11-15T14:12:34.880Z,58.33
2022-11-15T14:15:32.974Z,58.27
2022-11-15T14:18:43.800Z,58.34
2022-11-15T14:21:34.691Z,58.22
2022-11-15T14:24:32.293Z,58.30
2022-11-15T14:27:28.023Z,58.33
2022-11-15T14:30:19.465Z,57.99
2022-11-15T14:33:23.470Z,57.78
2022-11-15T14:36:18.723Z,57.66
2022-11-15T14:39:09.433Z,57.64
2022-11-15T14:41:59.606Z,57.67
2022-11-15T14:44:49.751Z,57.64
2022-11-15T14:47:39.943Z,57.16
2022-11-15T14:50:30.189Z,56.54
2022-11-15T14:53:21.771Z,56.52
2022-11-15T14:56:12.718Z,56.53
2022-11-15T14:59:02.797Z,56.69
2022-11-15T15:01:52.648Z,56.76
2022-11-15T15:04:42.795Z,56.85
2022-11-15T15:07:33.504Z,56.95
2022-11-15T15:10:39.632Z,56.72
2022-11-15T15:13:31.418Z,56.51
2022-11-15T15:16:21.776Z,56.40
2022-11-15T15:19:11.991Z,56.26
2022-11-15T15:22:02.803Z,56.33
2022-11-15T15:24:53.402Z,56.34
2022-11-15T15:27:43.857Z,56.40
2022-11-15T15:30:34.659Z,55.85
2022-11-15T15:33:25.079Z,55.36
2022-11-15T15:36:19.377Z,54.94
2022-11-15T15:39:12.786Z,54.46
2022-11-15T15:42:02.299Z,54.03
2022-11-15T15:44:53.310Z,53.98
2022-11-15T15:47:43.264Z,54.00
2022-11-15T15:50:36.030Z,54.08
2022-11-15T15:53:26.274Z,54.40
2022-11-15T15:56:16.609Z,54.92
2022-11-15T15:59:06.849Z,55.43
2022-11-15T16:01:56.917Z,56.09
2022-11-15T16:04:47.004Z,56.76
2022-11-15T16:07:37.517Z,57.34
2022-11-15T16:10:29.937Z,57.65
2022-11-15T16:13:19.773Z,58.06
2022-11-15T16:16:15.532Z,58.39
2022-11-15T16:19:05.704Z,58.47
2022-11-15T16:21:56.028Z,58.71
2022-11-15T16:24:46.422Z,58.74
2022-11-15T16:27:38.337Z,58.46
2022-11-15T16:30:28.244Z,57.61
2022-11-15T16:33:21.284Z,56.86
2022-11-15T16:36:25.670Z,56.38
2022-11-15T16:39:19.573Z,55.83
2022-11-15T16:42:09.714Z,55.72
2022-11-15T16:45:00.068Z,55.91
2022-11-15T16:47:49.887Z,55.44
2022-11-15T16:50:43.393Z,55.37
2022-11-15T16:53:33.404Z,55.08
2022-11-15T16:56:27.698Z,54.49
2022-11-15T16:59:21.067Z,53.84
2022-11-15T17:02:15.154Z,53.67
2022-11-15T17:05:09.593Z,53.38
2022-11-15T17:08:01.782Z,54.06
2022-11-15T17:10:51.544Z,55.53
2022-11-15T17:13:41.566Z,56.62
2022-11-15T17:16:31.399Z,57.26
2022-11-15T17:19:22.785Z,57.64
2022-11-15T17:22:12.501Z,57.98
2022-11-15T17:25:02.483Z,58.03
2022-11-15T17:27:52.203Z,58.24
2022-11-15T17:30:44.475Z,58.46
2022-11-15T17:33:34.588Z,58.68
2022-11-15T17:36:25.517Z,58.70
2022-11-15T17:39:16.403Z,57.91
2022-11-15T17:42:06.397Z,57.36
2022-11-15T17:44:56.569Z,57.22
2022-11-15T17:47:47.041Z,57.03
2022-11-15T17:50:37.211Z,57.33
2022-11-15T17:53:28.060Z,57.68
2022-11-15T17:56:19.686Z,57.92
2022-11-15T17:59:14.721Z,57.87
2022-11-15T18:02:06.785Z,57.72
2022-11-15T18:04:57.286Z,57.77
2022-11-15T18:07:47.530Z,58.02
2022-11-15T18:10:37.810Z,57.99
2022-11-15T18:13:28.169Z,57.54
2022-11-15T18:16:20.881Z,57.47
2022-11-15T18:19:14.077Z,57.59
2022-11-15T18:22:05.758Z,57.40
2022-11-15T18:24:55.903Z,57.07
2022-11-15T18:27:46.071Z,57.07
2022-11-15T18:30:36.194Z,57.16
2022-11-15T18:33:26.529Z,57.41
2022-11-15T18:36:17.742Z,57.82
2022-11-15T18:39:07.699Z,57.65
2022-11-15T18:41:57.460Z,56.77
2022-11-15T18:44:47.239Z,56.55
2022-11-15T18:47:37.739Z,56.06
2022-11-15T18:50:27.636Z,55.55
2022-11-15T18:53:18.809Z,55.45
2022-11-15T18:56:11.365Z,55.43
2022-11-15T18:59:03.252Z,55.70
2022-11-15T19:01:53.606Z,56.16
2022-11-15T19:04:43.759Z,56.65
2022-11-15T19:07:34.044Z,57.10
2022-11-15T19:10:24.279Z,57.41
2022-11-15T19:13:14.473Z,56.64
2022-11-15T19:16:05.822Z,55.71
2022-11-15T19:18:58.462Z,54.96
2022-11-15T19:21:48.335Z,54.46
2022-11-15T19:24:38.008Z,53.83
2022-11-15T19:27:27.760Z,53.90
2022-11-15T19:30:19.430Z,53.59
2022-11-15T19:33:09.321Z,53.51
2022-11-15T19:36:05.209Z,53.41
2022-11-15T19:38:56.604Z,53.38
2022-11-15T19:41:48.091Z,53.85
2022-11-15T19:44:38.843Z,53.77
2022-11-15T19:47:29.239Z,53.86
2022-11-15T19:50:20.365Z,53.88
2022-11-15T19:53:10.328Z,54.19
2022-11-15T19:56:03.513Z,54.59
2022-11-15T19:58:55.134Z,55.05
2022-11-15T20:01:45.496Z,55.28
2022-11-15T20:04:35.867Z,55.36
2022-11-15T20:07:26.413Z,54.54
2022-11-15T20:10:19.699Z,54.03
2022-11-15T20:13:11.068Z,53.81
2022-11-15T20:16:02.468Z,53.64
2022-11-15T20:18:53.956Z,53.56
2022-11-15T20:21:44.360Z,53.76
2022-11-15T20:24:35.383Z,54.11
2022-11-15T20:27:25.249Z,54.33
2022-11-15T20:30:16.142Z,54.54
2022-11-15T20:33:05.820Z,54.40
2022-11-15T20:35:56.056Z,54.08
2022-11-15T20:38:47.219Z,54.16
2022-11-15T20:41:36.656Z,54.22
2022-11-15T20:44:26.504Z,54.51
2022-11-15T20:47:15.943Z,54.66
2022-11-15T20:50:27.668Z,54.55
2022-11-15T20:53:16.727Z,54.67
2022-11-15T20:56:13.041Z,54.63
2022-11-15T20:59:02.845Z,54.58
2022-11-15T21:01:53.037Z,54.87
2022-11-15T21:04:42.495Z,55.09
2022-11-15T21:07:32.455Z,55.08
2022-11-15T21:10:40.730Z,55.08
2022-11-15T21:13:30.547Z,55.16
2022-11-15T21:16:20.095Z,55.28
2022-11-15T21:19:10.548Z,55.37
2022-11-15T21:22:00.921Z,55.50
2022-11-15T21:24:51.161Z,55.65
2022-11-15T21:27:41.208Z,55.74
2022-11-15T21:30:31.476Z,55.58
2022-11-15T21:33:23.896Z,55.67
2022-11-15T21:36:14.556Z,55.54
2022-11-15T21:39:04.898Z,55.53
2022-11-15T21:41:56.403Z,55.81
2022-11-15T21:44:47.820Z,56.09
2022-11-15T21:47:40.864Z,56.46
2022-11-15T21:50:34.963Z,56.86
2022-11-15T21:53:25.215Z,56.95
2022-11-15T21:56:15.088Z,56.58
2022-11-15T21:59:05.287Z,56.68
2022-11-15T22:02:08.816Z,56.70
2022-11-15T22:04:58.689Z,56.65
2022-11-15T22:07:48.859Z,56.71
2022-11-15T22:10:38.867Z,56.93
2022-11-15T22:13:30.089Z,57.21
2022-11-15T22:16:20.430Z,57.33
2022-11-15T22:19:10.629Z,57.29
2022-11-15T22:22:00.271Z,57.51
2022-11-15T22:24:50.333Z,57.84
2022-11-15T22:27:40.088Z,58.16
2022-11-15T22:30:29.751Z,58.21
2022-11-15T22:33:21.692Z,58.35
2022-11-15T22:36:14.246Z,58.44
2022-11-15T22:39:03.764Z,58.51
2022-11-15T22:41:54.485Z,58.75
2022-11-15T22:44:43.933Z,59.05
2022-11-15T22:47:34.024Z,59.39
2022-11-15T22:50:24.599Z,59.82
2022-11-15T22:53:14.895Z,60.00
2022-11-15T22:56:06.746Z,60.08
2022-11-15T22:58:56.643Z,60.09
2022-11-15T23:01:46.829Z,60.07
2022-11-15T23:04:38.520Z,60.18
2022-11-15T23:07:28.821Z,60.15
2022-11-15T23:10:36.892Z,60.20
2022-11-15T23:13:29.380Z,60.34
2022-11-15T23:16:33.268Z,60.66
2022-11-15T23:19:23.316Z,60.94
2022-11-15T23:22:30.631Z,61.39
2022-11-15T23:25:20.474Z,61.74
2022-11-15T23:28:10.310Z,61.91
2022-11-15T23:31:24.507Z,62.00
2022-11-15T23:34:18.511Z,62.20
2022-11-15T23:37:13.031Z,62.27
2022-11-15T23:40:03.553Z,62.41
2022-11-15T23:42:53.980Z,62.64
2022-11-15T23:45:44.347Z,62.75
2022-11-15T23:48:34.823Z,62.77
2022-11-15T23:51:25.309Z,62.88
2022-11-15T23:54:15.810Z,62.90
2022-11-15T23:57:07.251Z,62.98
